createdAt,value
2018-08-20T00:00:49.131Z,6.83
2018-08-20T00:03:20.863Z,7.30
2018-08-20T00:05:56.817Z,7.43
2018-08-20T00:08:27.532Z,7.60
2018-08-20T00:11:02.694Z,7.37
2018-08-20T00:13:33.666Z,7.70
2018-08-20T00:16:04.504Z,7.60
2018-08-20T00:18:35.012Z,7.83
2018-08-20T00:21:06.099Z,8.47
2018-08-20T00:23:38.004Z,8.90
2018-08-20T00:26:08.464Z,8.87
2018-08-20T00:28:39.307Z,8.57
2018-08-20T00:31:09.904Z,9.63
2018-08-20T00:33:40.623Z,10.10
2018-08-20T00:36:12.430Z,9.87
2018-08-20T00:38:43.641Z,10.63
2018-08-20T00:41:14.704Z,10.13
2018-08-20T00:43:45.552Z,9.73
2018-08-20T00:46:16.272Z,9.80
2018-08-20T00:48:47.125Z,9.83
2018-08-20T00:51:18.234Z,11.07
2018-08-20T00:53:48.956Z,11.07
2018-08-20T00:56:20.138Z,10.87
2018-08-20T00:58:51.202Z,12.00
2018-08-20T01:01:21.678Z,11.13
2018-08-20T01:03:52.646Z,11.97
2018-08-20T01:06:23.487Z,12.63
2018-08-20T01:08:53.728Z,14.07
2018-08-20T01:11:24.323Z,13.87
2018-08-20T01:13:56.248Z,14.70
2018-08-20T01:16:26.854Z,14.53
2018-08-20T01:18:57.934Z,15.20
2018-08-20T01:21:29.255Z,13.10
2018-08-20T01:24:00.089Z,14.47
2018-08-20T01:26:32.062Z,13.77
2018-08-20T01:29:03.485Z,14.37
2018-08-20T01:31:34.421Z,14.93
2018-08-20T01:34:05.137Z,13.80
2018-08-20T01:36:35.377Z,14.60
2018-08-20T01:39:06.943Z,13.80
2018-08-20T01:41:38.257Z,15.30
2018-08-20T01:44:08.879Z,14.50
2018-08-20T01:46:41.385Z,16.10
2018-08-20T01:49:11.869Z,15.07
2018-08-20T01:51:42.590Z,15.43
2018-08-20T01:54:13.700Z,17.37
2018-08-20T01:56:44.993Z,18.07
2018-08-20T01:59:15.832Z,17.93
2018-08-20T02:01:46.311Z,19.13
2018-08-20T02:04:17.992Z,18.53
2018-08-20T02:06:52.702Z,20.37
2018-08-20T02:09:23.526Z,20.07
2018-08-20T02:11:54.356Z,19.30
2018-08-20T02:14:25.203Z,20.80
2018-08-20T02:16:55.688Z,20.00
2018-08-20T02:19:26.526Z,21.10
2018-08-20T02:21:57.135Z,22.07
2018-08-20T02:24:27.984Z,22.33
2018-08-20T02:26:58.950Z,22.50
2018-08-20T02:29:30.128Z,22.13
2018-08-20T02:32:15.729Z,24.00
2018-08-20T02:34:47.551Z,22.83
2018-08-20T02:37:18.862Z,25.53
2018-08-20T02:39:49.972Z,24.27
2018-08-20T02:42:20.896Z,25.67
2018-08-20T02:44:51.736Z,26.07
2018-08-20T02:47:23.198Z,25.90
2018-08-20T02:49:55.002Z,26.53
2018-08-20T02:52:25.481Z,27.03
2018-08-20T02:54:57.034Z,26.53
2018-08-20T02:57:27.871Z,26.53
2018-08-20T02:59:59.083Z,25.93
2018-08-20T03:02:29.931Z,25.43
2018-08-20T03:05:01.844Z,26.50
2018-08-20T03:07:33.436Z,26.57
2018-08-20T03:10:04.848Z,26.83
2018-08-20T03:12:36.156Z,25.33
2018-08-20T03:15:07.855Z,25.53
2018-08-20T03:17:38.322Z,24.77
2018-08-20T03:20:09.282Z,26.93
2018-08-20T03:22:40.245Z,26.27
2018-08-20T03:25:11.233Z,27.13
2018-08-20T03:27:42.881Z,27.10
2018-08-20T03:30:13.381Z,27.17
2018-08-20T03:32:44.809Z,29.27
2018-08-20T03:35:16.872Z,28.70
2018-08-20T03:37:49.260Z,28.90
2018-08-20T03:40:22.173Z,29.20
2018-08-20T03:42:54.561Z,29.27
2018-08-20T03:45:26.575Z,30.50
2018-08-20T03:47:57.665Z,30.80
2018-08-20T03:50:28.525Z,31.23
2018-08-20T03:52:59.481Z,32.53
2018-08-20T03:55:31.545Z,32.03
2018-08-20T03:58:02.829Z,33.93
2018-08-20T04:00:33.669Z,34.17
2018-08-20T04:03:04.659Z,35.23
2018-08-20T04:05:35.949Z,35.17
2018-08-20T04:08:07.761Z,35.87
2018-08-20T04:10:40.149Z,35.87
2018-08-20T04:13:11.469Z,39.07
2018-08-20T04:15:43.517Z,38.37
2018-08-20T04:18:14.115Z,38.20
2018-08-20T04:20:45.442Z,38.17
2018-08-20T04:23:17.238Z,39.00
2018-08-20T04:25:48.574Z,38.40
2018-08-20T04:28:19.886Z,40.40
2018-08-20T04:30:51.214Z,39.90
2018-08-20T04:33:22.400Z,38.73
2018-08-20T04:35:53.504Z,39.87
2018-08-20T04:38:26.888Z,39.20
2018-08-20T04:40:59.486Z,39.03
2018-08-20T04:43:31.529Z,40.07
2018-08-20T04:46:03.235Z,39.47
2018-08-20T04:48:34.423Z,38.00
2018-08-20T04:51:08.141Z,39.67
2018-08-20T04:53:40.904Z,40.67
2018-08-20T04:56:11.986Z,38.87
2018-08-20T04:58:43.065Z,39.90
2018-08-20T05:01:13.541Z,39.97
2018-08-20T05:03:44.277Z,38.13
2018-08-20T05:06:15.107Z,40.57
2018-08-20T05:08:45.754Z,39.80
2018-08-20T05:11:16.671Z,38.33
2018-08-20T05:13:48.491Z,39.10
2018-08-20T05:16:20.149Z,39.27
2018-08-20T05:18:51.492Z,40.10
2018-08-20T05:21:23.049Z,37.53
2018-08-20T05:23:53.879Z,37.87
2018-08-20T05:26:24.613Z,38.97
2018-08-20T05:28:55.493Z,37.63
2018-08-20T05:31:27.607Z,38.17
2018-08-20T05:33:58.805Z,37.80
2018-08-20T05:36:30.003Z,37.77
2018-08-20T05:39:01.802Z,37.80
2018-08-20T05:41:33.138Z,36.40
2018-08-20T05:44:05.551Z,37.83
2018-08-20T05:46:37.209Z,36.70
2018-08-20T05:49:08.665Z,35.43
2018-08-20T05:51:40.100Z,34.73
2018-08-20T05:54:11.229Z,32.43
2018-08-20T05:56:41.911Z,33.97
2018-08-20T05:59:13.293Z,34.73
2018-08-20T06:01:44.546Z,33.53
2018-08-20T06:04:15.167Z,34.17
2018-08-20T06:06:46.378Z,32.13
2018-08-20T06:09:17.580Z,32.67
2018-08-20T06:11:48.519Z,32.40
2018-08-20T06:14:19.830Z,32.60
2018-08-20T06:16:53.555Z,30.90
2018-08-20T06:19:24.886Z,32.03
2018-08-20T06:21:56.442Z,30.87
2018-08-20T06:24:28.769Z,31.13
2018-08-20T06:26:59.678Z,28.97
2018-08-20T06:29:31.012Z,28.80
2018-08-20T06:32:01.979Z,27.23
2018-08-20T06:34:33.636Z,27.43
2018-08-20T06:37:05.085Z,26.53
2018-08-20T06:39:35.848Z,24.37
2018-08-20T06:42:06.761Z,24.80
2018-08-20T06:44:38.211Z,25.77
2018-08-20T06:47:09.779Z,23.77
2018-08-20T06:49:44.369Z,25.27
2018-08-20T06:52:15.314Z,23.03
2018-08-20T06:54:47.449Z,22.30
2018-08-20T06:57:21.420Z,22.60
2018-08-20T06:59:51.782Z,21.03
2018-08-20T07:02:23.218Z,20.73
2018-08-20T07:04:54.444Z,21.43
2018-08-20T07:07:25.622Z,20.00
2018-08-20T07:09:58.885Z,21.27
2018-08-20T07:12:30.674Z,20.10
2018-08-20T07:15:01.983Z,19.73
2018-08-20T07:17:32.986Z,19.80
2018-08-20T07:20:03.686Z,20.47
2018-08-20T07:22:34.874Z,20.33
2018-08-20T07:25:06.319Z,19.20
2018-08-20T07:27:37.753Z,19.33
2018-08-20T07:30:10.401Z,19.10
2018-08-20T07:32:41.971Z,19.03
2018-08-20T07:35:14.001Z,18.70
2018-08-20T07:37:45.213Z,18.80
2018-08-20T07:40:16.523Z,18.40
2018-08-20T07:42:47.127Z,18.67
2018-08-20T07:45:19.431Z,18.13
2018-08-20T07:47:50.377Z,18.83
2018-08-20T07:50:21.452Z,16.57
2018-08-20T07:52:51.861Z,17.37
2018-08-20T07:55:23.251Z,16.20
2018-08-20T07:57:53.856Z,16.97
2018-08-20T08:00:25.528Z,17.03
2018-08-20T08:02:57.125Z,16.53
2018-08-20T08:05:29.497Z,15.50
2018-08-20T08:08:00.235Z,14.10
2018-08-20T08:10:31.681Z,14.57
2018-08-20T08:13:03.960Z,13.97
2018-08-20T08:15:35.263Z,13.57
2018-08-20T08:18:07.923Z,12.20
2018-08-20T08:20:41.987Z,11.50
2018-08-20T08:23:12.972Z,11.00
2018-08-20T08:25:44.290Z,11.27
2018-08-20T08:28:16.106Z,10.97
2018-08-20T08:30:49.426Z,11.67
2018-08-20T08:33:20.520Z,10.53
2018-08-20T08:35:51.232Z,10.33
2018-08-20T08:38:21.976Z,9.30
2018-08-20T08:40:54.602Z,8.47
2018-08-20T08:43:27.372Z,8.77
2018-08-20T08:45:58.080Z,8.63
2018-08-20T08:48:28.706Z,8.00
2018-08-20T08:51:00.849Z,9.03
2018-08-20T08:53:33.000Z,7.70
2018-08-20T08:56:05.077Z,7.60
2018-08-20T08:58:38.682Z,6.67
2018-08-20T09:01:09.191Z,6.07
2018-08-20T09:03:41.425Z,6.70
2018-08-20T09:06:13.696Z,6.43
2018-08-20T09:08:44.428Z,5.90
2018-08-20T09:11:15.510Z,5.27
2018-08-20T09:13:48.813Z,6.20
2018-08-20T09:16:21.071Z,4.67
2018-08-20T09:18:52.242Z,4.00
2018-08-20T09:21:25.354Z,3.40
2018-08-20T09:23:57.275Z,2.87
2018-08-20T09:26:28.610Z,3.00
2018-08-20T09:29:00.382Z,3.00
2018-08-20T09:31:32.839Z,3.30
2018-08-20T09:34:04.106Z,3.83
2018-08-20T09:36:35.566Z,2.87
2018-08-20T09:39:08.317Z,2.97
2018-08-20T09:41:40.508Z,3.50
2018-08-20T09:44:12.519Z,3.13
2018-08-20T09:46:43.843Z,3.20
2018-08-20T09:49:15.160Z,3.23
2018-08-20T09:51:47.317Z,3.50
2018-08-20T09:54:19.357Z,3.37
2018-08-20T09:56:52.394Z,2.97
2018-08-20T09:59:23.473Z,3.47
2018-08-20T10:01:54.644Z,3.33
2018-08-20T10:04:25.501Z,3.63
2018-08-20T10:06:57.171Z,3.40
2018-08-20T10:09:28.264Z,3.43
2018-08-20T10:11:58.849Z,3.73
2018-08-20T10:14:29.596Z,3.90
2018-08-20T10:17:02.943Z,4.50
2018-08-20T10:19:34.027Z,3.33
2018-08-20T10:22:07.029Z,3.13
2018-08-20T10:24:38.240Z,3.47
2018-08-20T10:27:09.323Z,3.10
2018-08-20T10:29:40.524Z,3.20
2018-08-20T10:32:12.374Z,3.20
2018-08-20T10:34:44.953Z,2.60
2018-08-20T10:37:17.595Z,2.30
2018-08-20T10:39:48.912Z,2.10
2018-08-20T10:42:19.998Z,2.40
2018-08-20T10:44:55.051Z,2.37
2018-08-20T10:47:28.427Z,2.53
2018-08-20T10:49:59.989Z,2.30
2018-08-20T10:52:30.917Z,2.10
2018-08-20T10:55:01.279Z,2.30
2018-08-20T10:57:32.594Z,1.90
2018-08-20T11:00:05.119Z,2.33
2018-08-20T11:02:37.163Z,2.20
2018-08-20T11:05:10.758Z,2.20
2018-08-20T11:07:41.000Z,2.03
2018-08-20T11:10:11.720Z,2.00
2018-08-20T11:12:41.962Z,2.00
2018-08-20T11:15:12.803Z,2.20
2018-08-20T11:17:43.292Z,2.00
2018-08-20T11:20:15.710Z,2.13
2018-08-20T11:22:49.542Z,2.10
2018-08-20T11:25:29.262Z,2.60
2018-08-20T11:28:00.089Z,2.23
2018-08-20T11:30:30.451Z,2.37
2018-08-20T11:33:00.608Z,2.00
2018-08-20T11:35:31.650Z,2.30
2018-08-20T11:38:02.393Z,2.00
2018-08-20T11:40:33.346Z,2.27
2018-08-20T11:43:04.051Z,2.10
2018-08-20T11:45:34.782Z,1.80
2018-08-20T11:48:05.978Z,2.43
2018-08-20T11:50:38.271Z,2.57
2018-08-20T11:53:09.592Z,2.20
2018-08-20T11:55:41.160Z,2.10
2018-08-20T11:58:12.584Z,2.03
2018-08-20T12:00:43.664Z,2.40
2018-08-20T12:03:15.104Z,2.57
2018-08-20T12:05:47.381Z,2.60
2018-08-20T12:08:19.423Z,2.67
2018-08-20T12:12:19.065Z,2.67
2018-08-20T12:14:50.883Z,2.87
2018-08-20T12:17:23.108Z,3.40
2018-08-20T12:19:54.831Z,3.30
2018-08-20T12:22:26.165Z,3.13
2018-08-20T12:24:57.251Z,3.33
2018-08-20T12:27:29.319Z,3.30
2018-08-20T12:30:00.732Z,3.60
2018-08-20T12:32:35.051Z,3.63
2018-08-20T12:35:07.213Z,3.73
2018-08-20T12:37:38.157Z,3.80
2018-08-20T12:40:09.560Z,3.90
2018-08-20T12:42:42.632Z,3.77
2018-08-20T12:45:13.684Z,4.00
2018-08-20T12:47:44.651Z,3.50
2018-08-20T12:50:15.485Z,3.30
2018-08-20T12:52:46.468Z,3.00
2018-08-20T12:55:17.055Z,3.13
2018-08-20T12:57:49.100Z,3.43
2018-08-20T13:00:19.695Z,3.17
2018-08-20T13:02:50.784Z,3.33
2018-08-20T13:05:21.866Z,3.50
2018-08-20T13:07:53.542Z,3.53
2018-08-20T13:10:25.469Z,3.93
2018-08-20T13:12:57.983Z,4.40
2018-08-20T13:15:28.946Z,7.30
2018-08-20T13:17:59.546Z,3.90
2018-08-20T13:20:30.656Z,3.97
2018-08-20T13:23:01.235Z,4.10
2018-08-20T13:25:33.397Z,4.33
2018-08-20T13:28:04.353Z,4.20
2018-08-20T13:30:37.219Z,3.63
2018-08-20T13:33:08.118Z,4.10
2018-08-20T13:35:40.480Z,4.33
2018-08-20T13:38:13.132Z,4.50
2018-08-20T13:40:45.443Z,3.73
2018-08-20T13:43:17.373Z,3.97
2018-08-20T13:45:48.886Z,4.27
2018-08-20T13:48:21.160Z,4.30
2018-08-20T13:50:53.215Z,3.23
2018-08-20T13:53:24.792Z,3.07
2018-08-20T13:55:55.611Z,5.27
2018-08-20T13:58:25.720Z,2.63
2018-08-20T14:00:59.006Z,2.40
2018-08-20T14:03:29.637Z,2.77
2018-08-20T14:06:00.646Z,2.40
2018-08-20T14:08:31.850Z,2.63
2018-08-20T14:11:04.615Z,2.53
2018-08-20T14:13:36.579Z,2.70
2018-08-20T14:16:07.371Z,2.63
2018-08-20T14:18:39.187Z,2.93
2018-08-20T14:21:13.619Z,2.67
2018-08-20T14:23:46.992Z,3.00
2018-08-20T14:26:18.201Z,2.47
2018-08-20T14:28:49.747Z,2.37
2018-08-20T14:31:21.577Z,2.67
2018-08-20T14:33:52.623Z,3.30
2018-08-20T14:36:24.135Z,2.60
2018-08-20T14:38:56.109Z,3.00
2018-08-20T14:41:28.037Z,2.73
2018-08-20T14:43:59.852Z,2.70
2018-08-20T14:46:30.676Z,2.40
2018-08-20T14:49:02.593Z,3.33
2018-08-20T14:51:35.131Z,2.73
2018-08-20T14:54:06.559Z,2.40
2018-08-20T14:56:37.778Z,2.40
2018-08-20T14:59:08.607Z,2.57
2018-08-20T15:01:41.597Z,3.17
2018-08-20T15:04:15.083Z,3.20
2018-08-20T15:07:08.745Z,3.13
2018-08-20T15:09:41.115Z,3.37
2018-08-20T15:12:12.796Z,3.20
2018-08-20T15:14:43.928Z,3.10
2018-08-20T15:17:15.209Z,3.10
2018-08-20T15:19:46.038Z,3.67
2018-08-20T15:22:17.137Z,3.10
2018-08-20T15:24:49.566Z,2.73
2018-08-20T15:27:20.863Z,2.47
2018-08-20T15:29:52.344Z,2.33
2018-08-20T15:32:24.284Z,2.20
2018-08-20T15:34:56.014Z,2.25
2018-08-20T15:37:28.070Z,3.10
2018-08-20T15:39:58.659Z,5.33
2018-08-20T15:42:30.609Z,2.40
2018-08-20T15:45:01.467Z,2.47
2018-08-20T15:47:32.290Z,1.83
2018-08-20T15:50:02.875Z,2.20
2018-08-20T15:52:34.300Z,2.00
2018-08-20T15:55:05.648Z,2.13
2018-08-20T15:57:36.473Z,2.23
2018-08-20T16:00:08.147Z,2.27
2018-08-20T16:02:39.474Z,2.50
2018-08-20T16:05:10.300Z,5.53
2018-08-20T16:07:41.622Z,4.60
2018-08-20T16:10:12.730Z,2.93
2018-08-20T16:12:43.192Z,2.80
2018-08-20T16:15:14.563Z,3.10
2018-08-20T16:17:45.942Z,3.13
2018-08-20T16:20:17.779Z,3.47
2018-08-20T16:22:48.498Z,3.00
2018-08-20T16:25:21.471Z,3.17
2018-08-20T16:27:53.187Z,3.20
2018-08-20T16:30:24.725Z,5.87
2018-08-20T16:32:55.789Z,7.73
2018-08-20T16:35:26.871Z,7.87
2018-08-20T16:38:00.987Z,7.33
2018-08-20T16:40:31.688Z,9.70
2018-08-20T16:43:02.157Z,10.50
2018-08-20T16:45:33.920Z,10.90
2018-08-20T16:48:04.921Z,10.53
2018-08-20T16:50:36.380Z,10.87
2018-08-20T16:53:07.816Z,11.00
2018-08-20T16:55:38.892Z,10.17
2018-08-20T16:58:09.489Z,10.50
2018-08-20T17:00:40.446Z,10.60
2018-08-20T17:03:12.966Z,11.10
2018-08-20T17:05:49.220Z,11.53
2018-08-20T17:08:24.273Z,10.83
2018-08-20T17:10:56.176Z,10.50
2018-08-20T17:13:26.410Z,10.50
2018-08-20T17:16:00.608Z,10.53
2018-08-20T17:18:31.585Z,9.90
2018-08-20T17:21:02.358Z,9.90
2018-08-20T17:23:36.010Z,10.10
2018-08-20T17:26:08.181Z,10.80
2018-08-20T17:28:39.616Z,9.83
2018-08-20T17:31:14.042Z,11.20
2018-08-20T17:33:45.738Z,11.33
2018-08-20T17:36:16.352Z,11.33
2018-08-20T17:38:48.398Z,11.73
2018-08-20T17:41:19.470Z,10.73
2018-08-20T17:43:50.330Z,11.30
2018-08-20T17:46:22.009Z,11.23
2018-08-20T17:48:52.712Z,10.50
2018-08-20T17:51:25.114Z,11.40
2018-08-20T17:54:00.036Z,10.37
2018-08-20T17:56:30.884Z,10.80
2018-08-20T17:59:06.518Z,11.27
2018-08-20T18:01:37.613Z,11.20
2018-08-20T18:04:08.440Z,11.33
2018-08-20T18:06:48.305Z,11.17
2018-08-20T18:09:19.370Z,11.00
2018-08-20T18:11:52.873Z,10.93
2018-08-20T18:14:25.273Z,11.97
2018-08-20T18:16:55.964Z,11.03
2018-08-20T18:19:28.263Z,9.57
2018-08-20T18:22:16.626Z,10.70
2018-08-20T18:24:58.371Z,11.57
2018-08-20T18:33:58.377Z,11.80
2018-08-20T18:37:04.054Z,10.53
2018-08-20T18:42:56.253Z,10.17
2018-08-20T18:45:47.379Z,10.90
2018-08-20T18:48:26.017Z,10.60
2018-08-20T18:50:56.711Z,11.13
2018-08-20T18:53:34.521Z,10.93
2018-08-20T18:56:26.717Z,10.07
